Terminal Aerodrome Forecast
Issued by NWS

Home | Current Version | Previous Version | Text Only | Print | Product List | Glossary Off
Versions: 1 2 3 4 5 6 7 8 9 10 11 12 13 14 15 16

000
FTUS42 KMHX 172339
TAFISO
TAF
KISO 172339Z 1800/1824 21007KT P6SM BKN250
     FM180600 22011KT P6SM VCSH BKN090
     FM180900 23011KT P6SM VCSH BKN040
     FM181000 23010KT P6SM VCSH BKN027
     FM181100 24010KT P6SM -SHRA BKN016
     FM181600 26013KT P6SM BKN080
     FM182000 31012KT P6SM SCT250
      AMD LTD TO CLD VIS AND WIND=

USA.gov is the U.S. government's official web portal to all federal, state and local government web resources and services.